createdAt,value
2022-08-13T00:01:01.103Z,101582.00
2022-08-13T00:04:00.117Z,101576.00
2022-08-13T00:06:28.265Z,101577.00
2022-08-13T00:08:55.712Z,101573.00
2022-08-13T00:12:00.891Z,101572.00
2022-08-13T00:14:35.774Z,101575.00
2022-08-13T00:17:08.224Z,101570.00
2022-08-13T00:19:36.915Z,101574.00
2022-08-13T00:22:30.577Z,101572.00
2022-08-13T00:24:52.703Z,101573.00
2022-08-13T00:27:20.707Z,101566.00
2022-08-13T00:29:56.813Z,101564.00
2022-08-13T00:32:31.911Z,101567.00
2022-08-13T00:34:59.277Z,101564.00
2022-08-13T00:37:29.985Z,101570.00
2022-08-13T00:40:18.762Z,101558.00
2022-08-13T00:42:47.323Z,101553.00
2022-08-13T00:45:19.268Z,101557.00
2022-08-13T00:48:06.844Z,101563.00
2022-08-13T00:50:35.115Z,101563.00
2022-08-13T00:53:04.054Z,101558.00
2022-08-13T00:55:30.730Z,101562.00
2022-08-13T00:57:57.704Z,101553.00
2022-08-13T01:00:25.062Z,101552.00
2022-08-13T01:02:55.926Z,101554.00
2022-08-13T01:05:27.945Z,101557.00
2022-08-13T01:07:59.361Z,101556.00
2022-08-13T01:10:27.457Z,101553.00
2022-08-13T01:12:55.487Z,101553.00
2022-08-13T01:15:25.152Z,101553.00
2022-08-13T01:17:57.641Z,101561.00
2022-08-13T01:20:32.455Z,101557.00
2022-08-13T01:23:01.363Z,101553.00
2022-08-13T01:25:29.534Z,101552.00
2022-08-13T01:27:56.509Z,101553.00
2022-08-13T01:30:23.744Z,101545.00
2022-08-13T01:32:55.303Z,101548.00
2022-08-13T01:35:23.278Z,101544.00
2022-08-13T01:37:59.574Z,101554.00
2022-08-13T01:40:32.161Z,101544.00
2022-08-13T01:42:58.914Z,101548.00
2022-08-13T01:45:27.323Z,101553.00
2022-08-13T01:48:13.166Z,101553.00
2022-08-13T01:50:46.200Z,101559.00
2022-08-13T01:53:22.839Z,101551.00
2022-08-13T01:56:14.945Z,101557.00
2022-08-13T01:58:49.597Z,101547.00
2022-08-13T02:01:42.024Z,101548.00
2022-08-13T02:04:22.704Z,101550.00
2022-08-13T02:06:50.705Z,101547.00
2022-08-13T02:09:58.153Z,101551.00
2022-08-13T02:12:07.334Z,101544.00
2022-08-13T02:14:34.382Z,101543.00
2022-08-13T02:17:09.103Z,101554.00
2022-08-13T02:19:35.825Z,101552.00
2022-08-13T02:22:09.241Z,101549.00
2022-08-13T02:24:38.466Z,101547.00
2022-08-13T02:27:05.628Z,101550.00
2022-08-13T02:29:33.216Z,101546.00
2022-08-13T02:32:05.054Z,101552.00
2022-08-13T02:34:33.142Z,101541.00
2022-08-13T02:37:21.070Z,101544.00
2022-08-13T02:39:46.397Z,101548.00
2022-08-13T02:42:16.164Z,101546.00
2022-08-13T02:44:50.725Z,101549.00
2022-08-13T02:47:18.750Z,101548.00
2022-08-13T02:49:46.918Z,101544.00
2022-08-13T02:52:13.921Z,101541.00
2022-08-13T02:54:45.664Z,101542.00
2022-08-13T02:57:22.802Z,101544.00
2022-08-13T03:00:06.096Z,101540.00
2022-08-13T03:02:46.074Z,101545.00
2022-08-13T03:05:14.460Z,101540.00
2022-08-13T03:07:51.899Z,101545.00
2022-08-13T03:10:34.349Z,101550.00
2022-08-13T03:13:16.774Z,101545.00
2022-08-13T03:15:55.440Z,101549.00
2022-08-13T03:18:51.326Z,101547.00
2022-08-13T03:21:40.982Z,101544.00
2022-08-13T03:24:10.130Z,101550.00
2022-08-13T03:26:37.149Z,101549.00
2022-08-13T03:29:04.276Z,101546.00
2022-08-13T03:31:31.047Z,101553.00
2022-08-13T03:34:04.358Z,101547.00
2022-08-13T03:36:31.632Z,101552.00
2022-08-13T03:38:58.549Z,101544.00
2022-08-13T03:41:27.902Z,101541.00
2022-08-13T03:43:55.805Z,101542.00
2022-08-13T03:46:27.734Z,101547.00
2022-08-13T03:48:54.728Z,101554.00
2022-08-13T03:51:24.147Z,101553.00
2022-08-13T03:54:02.567Z,101545.00
2022-08-13T03:56:32.379Z,101547.00
2022-08-13T03:59:03.225Z,101552.00
2022-08-13T04:01:29.670Z,101546.00
2022-08-13T04:03:56.492Z,101547.00
2022-08-13T04:06:25.428Z,101549.00
2022-08-13T04:08:54.727Z,101543.00
2022-08-13T04:11:23.518Z,101552.00
2022-08-13T04:14:06.504Z,101547.00
2022-08-13T04:16:41.589Z,101550.00
2022-08-13T04:19:17.920Z,101544.00
2022-08-13T04:21:46.906Z,101547.00
2022-08-13T04:24:16.091Z,101545.00
2022-08-13T04:26:47.421Z,101543.00
2022-08-13T04:29:17.784Z,101539.00
2022-08-13T04:31:51.417Z,101547.00
2022-08-13T04:34:32.100Z,101548.00
2022-08-13T04:37:09.614Z,101555.00
2022-08-13T04:40:05.563Z,101545.00
2022-08-13T04:42:33.459Z,101549.00
2022-08-13T04:45:04.411Z,101548.00
2022-08-13T04:47:31.337Z,101550.00
2022-08-13T04:49:58.054Z,101553.00
2022-08-13T04:52:30.218Z,101545.00
2022-08-13T04:54:57.061Z,101554.00
2022-08-13T04:57:23.575Z,101550.00
2022-08-13T05:00:11.051Z,101554.00
2022-08-13T05:02:43.704Z,101538.00
2022-08-13T05:05:17.705Z,101548.00
2022-08-13T05:07:51.806Z,101549.00
2022-08-13T05:10:30.557Z,101554.00
2022-08-13T05:13:01.356Z,101548.00
2022-08-13T05:15:41.916Z,101548.00
2022-08-13T05:18:22.436Z,101553.00
2022-08-13T05:20:55.626Z,101549.00
2022-08-13T05:26:20.036Z,101549.00
2022-08-13T05:26:30.386Z,101546.00
2022-08-13T05:28:59.271Z,101551.00
2022-08-13T05:31:29.893Z,101550.00
2022-08-13T05:34:04.574Z,101553.00
2022-08-13T05:38:13.689Z,101552.00
2022-08-13T05:39:18.930Z,101553.00
2022-08-13T05:42:07.116Z,101556.00
2022-08-13T05:44:37.097Z,101557.00
2022-08-13T05:47:05.511Z,101555.00
2022-08-13T05:49:42.405Z,101555.00
2022-08-13T05:52:35.269Z,101555.00
2022-08-13T05:56:11.046Z,101552.00
2022-08-13T05:58:00.267Z,101556.00
2022-08-13T06:00:45.154Z,101558.00
2022-08-13T06:04:16.815Z,101553.00
2022-08-13T06:06:20.371Z,101558.00
2022-08-13T06:08:51.186Z,101559.00
2022-08-13T06:12:05.349Z,101554.00
2022-08-13T06:14:06.859Z,101549.00
2022-08-13T06:16:49.574Z,101553.00
2022-08-13T06:19:16.797Z,101552.00
2022-08-13T06:21:49.579Z,101559.00
2022-08-13T06:24:26.260Z,101560.00
2022-08-13T06:26:52.815Z,101560.00
2022-08-13T06:29:21.641Z,101560.00
2022-08-13T06:31:49.505Z,101560.00
2022-08-13T06:34:34.967Z,101557.00
2022-08-13T06:37:04.223Z,101568.00
2022-08-13T06:39:33.122Z,101558.00
2022-08-13T06:42:03.884Z,101564.00
2022-08-13T06:44:32.920Z,101558.00
2022-08-13T06:47:01.951Z,101561.00
2022-08-13T06:49:48.526Z,101565.00
2022-08-13T06:52:21.648Z,101570.00
2022-08-13T06:54:51.314Z,101570.00
2022-08-13T06:57:21.387Z,101569.00
2022-08-13T07:00:10.656Z,101576.00
2022-08-13T07:02:37.705Z,101568.00
2022-08-13T07:05:07.630Z,101571.00
2022-08-13T07:07:35.184Z,101562.00
2022-08-13T07:10:02.954Z,101569.00
2022-08-13T07:12:31.484Z,101561.00
2022-08-13T07:14:58.856Z,101564.00
2022-08-13T07:17:33.926Z,101564.00
2022-08-13T07:20:07.360Z,101569.00
2022-08-13T07:24:48.729Z,101575.00
2022-08-13T07:25:58.189Z,101577.00
2022-08-13T07:28:20.668Z,101566.00
2022-08-13T07:31:11.232Z,101569.00
2022-08-13T07:33:53.997Z,101572.00
2022-08-13T07:36:26.157Z,101571.00
2022-08-13T07:38:53.150Z,101572.00
2022-08-13T07:41:21.286Z,101578.00
2022-08-13T07:44:03.646Z,101571.00
2022-08-13T07:46:35.292Z,101576.00
2022-08-13T07:49:04.877Z,101581.00
2022-08-13T07:51:36.578Z,101580.00
2022-08-13T07:54:09.169Z,101583.00
2022-08-13T07:56:37.080Z,101574.00
2022-08-13T07:59:05.434Z,101572.00
2022-08-13T08:02:20.674Z,101587.00
2022-08-13T08:04:30.340Z,101580.00
2022-08-13T08:06:57.743Z,101579.00
2022-08-13T08:09:25.386Z,101578.00
2022-08-13T08:12:16.357Z,101580.00
2022-08-13T08:14:55.619Z,101579.00
2022-08-13T08:18:16.771Z,101584.00
2022-08-13T08:20:32.006Z,101587.00
2022-08-13T08:23:05.146Z,101583.00
2022-08-13T08:25:34.200Z,101583.00
2022-08-13T08:28:35.106Z,101578.00
2022-08-13T08:30:57.766Z,101583.00
2022-08-13T08:33:51.084Z,101586.00
2022-08-13T08:36:34.344Z,101592.00
2022-08-13T08:39:22.494Z,101586.00
2022-08-13T08:42:15.785Z,101588.00
2022-08-13T08:44:42.907Z,101588.00
2022-08-13T08:47:11.454Z,101585.00
2022-08-13T08:49:44.069Z,101589.00
2022-08-13T08:52:11.546Z,101577.00
2022-08-13T08:54:39.370Z,101582.00
2022-08-13T08:57:07.403Z,101581.00
2022-08-13T08:59:43.315Z,101582.00
2022-08-13T09:02:24.365Z,101588.00
2022-08-13T09:05:00.264Z,101586.00
2022-08-13T09:07:37.926Z,101585.00
2022-08-13T09:10:07.434Z,101584.00
2022-08-13T09:12:35.058Z,101585.00
2022-08-13T09:15:02.456Z,101591.00
2022-08-13T09:17:40.443Z,101591.00
2022-08-13T09:20:13.374Z,101587.00
2022-08-13T09:22:41.435Z,101586.00
2022-08-13T09:25:19.801Z,101581.00
2022-08-13T09:28:10.808Z,101583.00
2022-08-13T09:30:40.671Z,101581.00
2022-08-13T09:33:13.644Z,101580.00
2022-08-13T09:35:41.329Z,101582.00
2022-08-13T09:38:12.804Z,101582.00
2022-08-13T09:40:56.384Z,101579.00
2022-08-13T09:43:48.027Z,101586.00
2022-08-13T09:46:19.797Z,101581.00
2022-08-13T09:48:48.253Z,101588.00
2022-08-13T09:52:01.825Z,101578.00
2022-08-13T09:54:06.193Z,101572.00
2022-08-13T09:56:39.044Z,101575.00
2022-08-13T09:59:15.416Z,101575.00
2022-08-13T10:01:57.872Z,101577.00
2022-08-13T10:04:28.885Z,101574.00
2022-08-13T10:07:01.407Z,101569.00
2022-08-13T10:09:32.912Z,101564.00
2022-08-13T10:12:19.001Z,101566.00
2022-08-13T10:14:55.208Z,101563.00
2022-08-13T10:17:24.650Z,101565.00
2022-08-13T10:20:10.039Z,101557.00
2022-08-13T10:22:36.456Z,101559.00
2022-08-13T10:25:03.475Z,101553.00
2022-08-13T10:27:48.297Z,101557.00
2022-08-13T10:30:59.598Z,101550.00
2022-08-13T10:33:03.604Z,101553.00
2022-08-13T10:35:30.369Z,101552.00
2022-08-13T10:38:00.470Z,101548.00
2022-08-13T10:40:36.117Z,101550.00
2022-08-13T10:43:17.678Z,101544.00
2022-08-13T10:45:52.537Z,101543.00
2022-08-13T10:48:19.788Z,101549.00
2022-08-13T10:50:46.505Z,101541.00
2022-08-13T10:53:41.778Z,101536.00
2022-08-13T10:56:10.091Z,101551.00
2022-08-13T10:58:46.577Z,101540.00
2022-08-13T11:01:17.365Z,101540.00
2022-08-13T11:03:48.372Z,101543.00
2022-08-13T11:06:15.963Z,101544.00
2022-08-13T11:08:44.137Z,101548.00
2022-08-13T11:11:37.079Z,101535.00
2022-08-13T11:13:59.058Z,101531.00
2022-08-13T11:16:34.242Z,101529.00
2022-08-13T11:19:01.224Z,101527.00
2022-08-13T11:22:20.854Z,101523.00
2022-08-13T11:24:19.552Z,101526.00
2022-08-13T11:26:49.347Z,101526.00
2022-08-13T11:29:16.377Z,101520.00
2022-08-13T11:31:59.454Z,101527.00
2022-08-13T11:34:28.119Z,101524.00
2022-08-13T11:36:54.602Z,101524.00
2022-08-13T11:39:38.210Z,101523.00
2022-08-13T11:42:07.648Z,101526.00
2022-08-13T11:44:38.016Z,101527.00
2022-08-13T11:47:10.014Z,101518.00
2022-08-13T11:49:45.524Z,101520.00
2022-08-13T11:52:17.735Z,101516.00
2022-08-13T11:54:54.645Z,101513.00
2022-08-13T11:57:21.607Z,101514.00
2022-08-13T11:59:50.798Z,101508.00
2022-08-13T12:02:26.563Z,101512.00
2022-08-13T12:04:58.954Z,101510.00
2022-08-13T12:07:27.136Z,101503.00
2022-08-13T12:09:57.157Z,101503.00
2022-08-13T12:12:31.526Z,101507.00
2022-08-13T12:14:58.739Z,101506.00
2022-08-13T12:17:50.753Z,101500.00
2022-08-13T12:20:19.985Z,101509.00
2022-08-13T12:22:52.605Z,101496.00
2022-08-13T12:26:00.830Z,101505.00
2022-08-13T12:28:09.444Z,101496.00
2022-08-13T12:30:36.017Z,101498.00
2022-08-13T12:33:04.511Z,101503.00
2022-08-13T12:35:57.302Z,101499.00
2022-08-13T12:38:30.020Z,101505.00
2022-08-13T12:41:00.185Z,101509.00
2022-08-13T12:44:09.167Z,101500.00
2022-08-13T12:46:33.000Z,101496.00
2022-08-13T12:49:01.472Z,101495.00
2022-08-13T12:51:37.641Z,101488.00
2022-08-13T12:54:16.010Z,101483.00
2022-08-13T12:57:01.111Z,101485.00
2022-08-13T12:59:32.015Z,101466.00
2022-08-13T13:02:05.123Z,101470.00
2022-08-13T13:04:31.607Z,101467.00
2022-08-13T13:06:58.128Z,101464.00
2022-08-13T13:09:47.997Z,101470.00
2022-08-13T13:12:11.792Z,101465.00
2022-08-13T13:14:38.685Z,101459.00
2022-08-13T13:17:05.397Z,101459.00
2022-08-13T13:20:07.901Z,101463.00
2022-08-13T13:22:39.085Z,101462.00
2022-08-13T13:25:06.755Z,101466.00
2022-08-13T13:27:44.781Z,101470.00
2022-08-13T13:30:13.555Z,101463.00
2022-08-13T13:32:46.798Z,101460.00
2022-08-13T13:35:37.923Z,101457.00
2022-08-13T13:38:06.286Z,101452.00
2022-08-13T13:40:35.902Z,101452.00
2022-08-13T13:43:24.008Z,101459.00
2022-08-13T13:46:01.489Z,101455.00
2022-08-13T13:48:34.415Z,101455.00
2022-08-13T13:51:02.208Z,101448.00
2022-08-13T13:53:46.686Z,101442.00
2022-08-13T13:56:18.679Z,101444.00
2022-08-13T13:58:55.087Z,101432.00
2022-08-13T14:01:25.056Z,101433.00
2022-08-13T14:03:57.078Z,101440.00
2022-08-13T14:06:26.058Z,101428.00
2022-08-13T14:08:52.563Z,101429.00
2022-08-13T14:11:19.651Z,101428.00
2022-08-13T14:13:47.563Z,101424.00
2022-08-13T14:16:15.595Z,101426.00
2022-08-13T14:18:43.821Z,101426.00
2022-08-13T14:21:12.799Z,101417.00
2022-08-13T14:23:42.259Z,101415.00
2022-08-13T14:26:14.787Z,101412.00
2022-08-13T14:28:46.557Z,101410.00
2022-08-13T14:31:13.754Z,101402.00
2022-08-13T14:33:59.140Z,101410.00
2022-08-13T14:36:30.685Z,101406.00
2022-08-13T14:39:06.086Z,101404.00
2022-08-13T14:41:47.878Z,101405.00
2022-08-13T14:44:40.733Z,101396.00
2022-08-13T14:47:13.097Z,101399.00
2022-08-13T14:49:55.734Z,101400.00
2022-08-13T14:52:56.576Z,101398.00
2022-08-13T14:55:14.190Z,101398.00
2022-08-13T14:57:42.234Z,101394.00
2022-08-13T15:00:10.573Z,101391.00
2022-08-13T15:03:12.103Z,101390.00
2022-08-13T15:05:41.246Z,101389.00
2022-08-13T15:08:30.544Z,101382.00
2022-08-13T15:11:02.620Z,101370.00
2022-08-13T15:13:53.390Z,101380.00
2022-08-13T15:16:30.768Z,101374.00
2022-08-13T15:18:58.877Z,101367.00
2022-08-13T15:21:47.041Z,101363.00
2022-08-13T15:24:37.526Z,101362.00
2022-08-13T15:27:35.413Z,101370.00
2022-08-13T15:30:07.124Z,101366.00
2022-08-13T15:32:34.603Z,101365.00
2022-08-13T15:35:02.157Z,101362.00
2022-08-13T15:37:43.238Z,101348.00
2022-08-13T15:40:21.941Z,101352.00
2022-08-13T15:42:57.024Z,101352.00
2022-08-13T15:45:34.802Z,101352.00
2022-08-13T15:48:07.069Z,101349.00
2022-08-13T15:50:46.484Z,101342.00
2022-08-13T15:53:18.373Z,101347.00
2022-08-13T15:55:45.189Z,101340.00
2022-08-13T15:58:25.273Z,101346.00
2022-08-13T16:00:56.247Z,101337.00
2022-08-13T16:03:27.367Z,101334.00
2022-08-13T16:05:57.936Z,101331.00
2022-08-13T16:08:24.936Z,101323.00
2022-08-13T16:10:58.608Z,101326.00
2022-08-13T16:13:25.843Z,101314.00
2022-08-13T16:15:54.007Z,101315.00
2022-08-13T16:18:35.163Z,101317.00
2022-08-13T16:21:03.630Z,101312.00
2022-08-13T16:23:57.743Z,101312.00
2022-08-13T16:26:20.779Z,101309.00
2022-08-13T16:28:52.907Z,101302.00
2022-08-13T16:31:19.403Z,101308.00
2022-08-13T16:33:51.939Z,101300.00
2022-08-13T16:36:20.739Z,101311.00
2022-08-13T16:38:47.929Z,101305.00
2022-08-13T16:41:16.697Z,101303.00
2022-08-13T16:44:00.603Z,101306.00
2022-08-13T16:46:31.038Z,101299.00
2022-08-13T16:49:04.352Z,101303.00
2022-08-13T17:55:37.405Z,101296.00
2022-08-13T17:58:16.391Z,101303.00
2022-08-13T18:00:53.837Z,101304.00
2022-08-13T18:03:21.560Z,101299.00
2022-08-13T18:06:23.459Z,101293.00
2022-08-13T18:08:38.600Z,101299.00
2022-08-13T18:11:08.714Z,101302.00
2022-08-13T18:14:02.734Z,101298.00
2022-08-13T18:17:05.735Z,101294.00
2022-08-13T18:19:16.577Z,101296.00
2022-08-13T18:21:45.550Z,101295.00
2022-08-13T18:24:18.495Z,101292.00
2022-08-13T18:26:57.426Z,101297.00
2022-08-13T18:29:57.316Z,101303.00
2022-08-13T18:32:12.881Z,101301.00
2022-08-13T18:34:50.532Z,101303.00
2022-08-13T18:37:19.268Z,101313.00
2022-08-13T18:39:48.145Z,101304.00
2022-08-13T18:42:32.537Z,101303.00
2022-08-13T18:45:24.672Z,101301.00
2022-08-13T18:47:56.361Z,101301.00
2022-08-13T18:50:31.508Z,101303.00
2022-08-13T18:53:30.926Z,101303.00
2022-08-13T18:56:01.258Z,101307.00
2022-08-13T18:58:28.853Z,101306.00
2022-08-13T19:01:01.333Z,101303.00
2022-08-13T19:03:34.247Z,101300.00
2022-08-13T19:06:14.954Z,101300.00
2022-08-13T19:08:43.040Z,101305.00
2022-08-13T19:11:17.505Z,101305.00
2022-08-13T19:13:43.993Z,101303.00
2022-08-13T19:16:10.452Z,101306.00
2022-08-13T19:18:44.175Z,101303.00
2022-08-13T19:21:52.110Z,101304.00
2022-08-13T19:23:59.725Z,101302.00
2022-08-13T19:26:43.783Z,101304.00
2022-08-13T19:29:11.634Z,101307.00
2022-08-13T19:31:38.363Z,101303.00
2022-08-13T19:34:05.460Z,101301.00
2022-08-13T19:36:34.963Z,101300.00
2022-08-13T19:39:25.592Z,101299.00
2022-08-13T19:41:54.121Z,101301.00
2022-08-13T19:44:20.992Z,101289.00
2022-08-13T19:46:56.916Z,101303.00
2022-08-13T19:49:23.354Z,101303.00
2022-08-13T19:52:03.263Z,101299.00
2022-08-13T19:54:29.748Z,101295.00
2022-08-13T19:56:56.188Z,101298.00
2022-08-13T19:59:26.086Z,101293.00
2022-08-13T20:01:53.540Z,101298.00
2022-08-13T20:04:21.712Z,101288.00
2022-08-13T20:07:01.280Z,101283.00
2022-08-13T20:09:32.582Z,101286.00
2022-08-13T20:12:13.373Z,101280.00
2022-08-13T20:14:54.975Z,101279.00
2022-08-13T20:17:24.395Z,101280.00
2022-08-13T20:19:59.479Z,101275.00
2022-08-13T20:22:29.626Z,101278.00
2022-08-13T20:25:46.927Z,101268.00
2022-08-13T20:27:50.649Z,101272.00
2022-08-13T20:30:35.118Z,101278.00
2022-08-13T20:33:04.116Z,101267.00
2022-08-13T20:35:30.589Z,101270.00
2022-08-13T20:37:59.189Z,101273.00
2022-08-13T20:40:29.088Z,101270.00
2022-08-13T20:42:57.392Z,101270.00
2022-08-13T20:45:25.865Z,101270.00
2022-08-13T20:48:04.562Z,101261.00
2022-08-13T20:50:53.293Z,101265.00
2022-08-13T20:53:21.847Z,101269.00
2022-08-13T20:55:49.753Z,101263.00
2022-08-13T21:00:40.122Z,101267.00
2022-08-13T21:01:17.497Z,101261.00
2022-08-13T21:03:48.304Z,101259.00
2022-08-13T21:06:18.005Z,101263.00
2022-08-13T21:08:52.681Z,101268.00
2022-08-13T21:11:20.872Z,101268.00
2022-08-13T21:13:48.358Z,101265.00
2022-08-13T21:16:33.142Z,101263.00
2022-08-13T21:21:55.925Z,101258.00
2022-08-13T21:24:23.617Z,101250.00
2022-08-13T21:26:59.221Z,101247.00
2022-08-13T21:29:33.788Z,101249.00
2022-08-13T21:32:19.062Z,101242.00
2022-08-13T21:34:49.739Z,101248.00
2022-08-13T21:37:21.362Z,101244.00
2022-08-13T21:39:54.056Z,101249.00
2022-08-13T21:42:29.525Z,101245.00
2022-08-13T21:45:07.463Z,101242.00
2022-08-13T21:47:39.149Z,101231.00
2022-08-13T21:50:10.636Z,101234.00
2022-08-13T21:52:43.375Z,101224.00
2022-08-13T21:55:11.439Z,101224.00
2022-08-13T21:57:39.332Z,101225.00
2022-08-13T22:00:22.071Z,101228.00
2022-08-13T22:02:55.235Z,101225.00
2022-08-13T22:05:22.630Z,101222.00
2022-08-13T22:07:57.800Z,101215.00
2022-08-13T22:10:25.196Z,101215.00
2022-08-13T22:12:55.961Z,101209.00
2022-08-13T22:15:23.994Z,101212.00
2022-08-13T22:17:59.730Z,101214.00
2022-08-13T22:20:26.207Z,101207.00
2022-08-13T22:22:58.070Z,101206.00
2022-08-13T22:25:25.197Z,101213.00
2022-08-13T22:27:52.277Z,101207.00
2022-08-13T22:30:37.389Z,101214.00
2022-08-13T22:33:10.623Z,101204.00
2022-08-13T22:35:38.528Z,101204.00
2022-08-13T22:38:26.058Z,101207.00
2022-08-13T22:41:03.275Z,101205.00
2022-08-13T22:43:44.131Z,101204.00
2022-08-13T22:46:13.941Z,101197.00
2022-08-13T22:48:40.557Z,101195.00
2022-08-13T22:51:07.636Z,101198.00
2022-08-13T22:53:38.808Z,101202.00
2022-08-13T22:56:09.415Z,101195.00
2022-08-13T22:58:41.129Z,101194.00
2022-08-13T23:01:07.834Z,101196.00
2022-08-13T23:03:36.683Z,101193.00
2022-08-13T23:06:03.949Z,101191.00
2022-08-13T23:08:31.040Z,101186.00
2022-08-13T23:10:57.657Z,101179.00
2022-08-13T23:13:25.660Z,101174.00
2022-08-13T23:15:53.118Z,101180.00
2022-08-13T23:18:24.579Z,101180.00
2022-08-13T23:20:56.353Z,101173.00
2022-08-13T23:23:23.267Z,101170.00
2022-08-13T23:25:57.073Z,101168.00
2022-08-13T23:28:23.678Z,101166.00
2022-08-13T23:30:50.419Z,101170.00
2022-08-13T23:33:17.261Z,101164.00
2022-08-13T23:35:48.851Z,101157.00
2022-08-13T23:38:18.089Z,101160.00
2022-08-13T23:40:44.762Z,101156.00
2022-08-13T23:43:12.872Z,101149.00
2022-08-13T23:45:41.661Z,101151.00
2022-08-13T23:48:10.449Z,101147.00
2022-08-13T23:50:39.774Z,101150.00
2022-08-13T23:53:18.741Z,101145.00
2022-08-13T23:55:52.443Z,101142.00
2022-08-13T23:58:35.138Z,101130.00
